Paradise, Canada
Current Conditions -  °F | °C
As of 4:00 AM on Friday 28 Nov 2014 (Local Time) from CYQX Reporting Station
Light Snow Light Snow  
Wind Chill: -8°   Ceiling: 500
Heat Index: -1°   Visibility: 2mi
Dew Point: -2°   Wind: 20mph
Humidity: 93%   Direction: 330°NNW
Pressure: 29.57"   Gusts: 29mph
Location:  49.37°N, 55.33°W
Report Text: CYQX 280700Z 33017G25KT 2SM -FZDZ -SN DRSN BKN005 OVC020 M01/M02 A2957 RMK SN3SF4SC1 PRESRR SLP022
Loading
Personal Weather Stations






























Interactive Weather Map New forecast layout! Learn more

10-Day Weather Forecast

Advertisements
Track Severe Weather on mobile